sensor_id;sensor_type;location;lat;lon;timestamp;P1;durP1;ratioP1;P2;durP2;ratioP2
32200;SDS011;18701;45.588;5.288;2023-02-16T00:02:45;19.95;;;11.15;;
32200;SDS011;18701;45.588;5.288;2023-02-16T00:07:45;22.48;;;11.75;;
32200;SDS011;18701;45.588;5.288;2023-02-16T00:10:11;20.13;;;11.77;;
32200;SDS011;18701;45.588;5.288;2023-02-16T00:12:37;21.65;;;11.60;;
32200;SDS011;18701;45.588;5.288;2023-02-16T00:15:21;22.25;;;12.00;;
32200;SDS011;18701;45.588;5.288;2023-02-16T00:17:47;22.70;;;11.23;;
32200;SDS011;18701;45.588;5.288;2023-02-16T00:20:13;23.45;;;11.80;;
32200;SDS011;18701;45.588;5.288;2023-02-16T00:22:40;23.13;;;12.20;;
32200;SDS011;18701;45.588;5.288;2023-02-16T00:25:05;19.75;;;11.80;;
32200;SDS011;18701;45.588;5.288;2023-02-16T00:27:32;24.00;;;12.65;;
32200;SDS011;18701;45.588;5.288;2023-02-16T00:29:57;22.90;;;12.32;;
32200;SDS011;18701;45.588;5.288;2023-02-16T00:32:23;21.52;;;11.55;;
32200;SDS011;18701;45.588;5.288;2023-02-16T00:34:49;25.05;;;12.82;;
32200;SDS011;18701;45.588;5.288;2023-02-16T00:37:14;21.65;;;11.63;;
32200;SDS011;18701;45.588;5.288;2023-02-16T00:39:40;26.50;;;12.75;;
32200;SDS011;18701;45.588;5.288;2023-02-16T00:42:20;25.83;;;12.48;;
32200;SDS011;18701;45.588;5.288;2023-02-16T00:44:52;23.02;;;11.75;;
32200;SDS011;18701;45.588;5.288;2023-02-16T00:50:02;22.02;;;11.57;;
32200;SDS011;18701;45.588;5.288;2023-02-16T00:52:38;20.42;;;11.50;;
32200;SDS011;18701;45.588;5.288;2023-02-16T00:55:11;21.40;;;11.50;;
32200;SDS011;18701;45.588;5.288;2023-02-16T00:57:40;22.60;;;11.75;;
32200;SDS011;18701;45.588;5.288;2023-02-16T01:00:13;21.75;;;11.82;;
32200;SDS011;18701;45.588;5.288;2023-02-16T01:02:42;28.85;;;12.23;;
32200;SDS011;18701;45.588;5.288;2023-02-16T01:05:10;34.78;;;12.63;;
32200;SDS011;18701;45.588;5.288;2023-02-16T01:07:36;23.33;;;12.50;;
32200;SDS011;18701;45.588;5.288;2023-02-16T01:10:20;18.45;;;11.20;;
32200;SDS011;18701;45.588;5.288;2023-02-16T01:13:06;19.88;;;11.90;;
32200;SDS011;18701;45.588;5.288;2023-02-16T01:15:32;23.17;;;12.13;;
32200;SDS011;18701;45.588;5.288;2023-02-16T01:17:57;21.05;;;11.75;;
32200;SDS011;18701;45.588;5.288;2023-02-16T01:20:24;20.67;;;11.23;;
32200;SDS011;18701;45.588;5.288;2023-02-16T01:22:50;20.17;;;12.07;;
32200;SDS011;18701;45.588;5.288;2023-02-16T01:25:16;22.88;;;11.60;;
32200;SDS011;18701;45.588;5.288;2023-02-16T01:27:42;21.83;;;11.60;;
32200;SDS011;18701;45.588;5.288;2023-02-16T01:30:13;20.13;;;11.55;;
32200;SDS011;18701;45.588;5.288;2023-02-16T01:32:41;22.52;;;11.68;;
32200;SDS011;18701;45.588;5.288;2023-02-16T01:35:06;19.95;;;11.35;;
32200;SDS011;18701;45.588;5.288;2023-02-16T01:37:32;20.02;;;11.25;;
32200;SDS011;18701;45.588;5.288;2023-02-16T01:39:59;20.05;;;11.57;;
32200;SDS011;18701;45.588;5.288;2023-02-16T01:45:08;19.15;;;10.73;;
32200;SDS011;18701;45.588;5.288;2023-02-16T01:47:45;22.45;;;10.95;;
32200;SDS011;18701;45.588;5.288;2023-02-16T01:50:17;17.45;;;10.50;;
32200;SDS011;18701;45.588;5.288;2023-02-16T01:55:21;18.33;;;11.65;;
32200;SDS011;18701;45.588;5.288;2023-02-16T01:57:49;20.90;;;12.32;;
32200;SDS011;18701;45.588;5.288;2023-02-16T02:00:20;26.27;;;12.52;;
32200;SDS011;18701;45.588;5.288;2023-02-16T02:03:15;20.67;;;11.07;;
32200;SDS011;18701;45.588;5.288;2023-02-16T02:06:09;20.80;;;11.65;;
32200;SDS011;18701;45.588;5.288;2023-02-16T02:08:55;17.90;;;10.75;;
32200;SDS011;18701;45.588;5.288;2023-02-16T02:11:29;19.02;;;10.32;;
32200;SDS011;18701;45.588;5.288;2023-02-16T02:16:37;20.10;;;11.57;;
32200;SDS011;18701;45.588;5.288;2023-02-16T02:19:03;17.35;;;10.38;;
32200;SDS011;18701;45.588;5.288;2023-02-16T02:27:32;23.40;;;11.60;;
32200;SDS011;18701;45.588;5.288;2023-02-16T02:41:23;18.35;;;11.15;;
32200;SDS011;18701;45.588;5.288;2023-02-16T02:44:20;20.00;;;11.75;;
32200;SDS011;18701;45.588;5.288;2023-02-16T02:46:47;20.27;;;11.52;;
32200;SDS011;18701;45.588;5.288;2023-02-16T02:49:14;22.02;;;12.38;;
32200;SDS011;18701;45.588;5.288;2023-02-16T02:51:39;22.80;;;13.57;;
32200;SDS011;18701;45.588;5.288;2023-02-16T02:54:06;16.35;;;10.77;;
32200;SDS011;18701;45.588;5.288;2023-02-16T02:56:58;19.70;;;11.68;;
32200;SDS011;18701;45.588;5.288;2023-02-16T02:59:57;19.88;;;11.60;;
32200;SDS011;18701;45.588;5.288;2023-02-16T03:02:52;18.80;;;10.95;;
32200;SDS011;18701;45.588;5.288;2023-02-16T03:05:22;18.30;;;11.45;;
32200;SDS011;18701;45.588;5.288;2023-02-16T03:07:51;22.40;;;10.65;;
32200;SDS011;18701;45.588;5.288;2023-02-16T03:10:22;22.77;;;10.98;;
32200;SDS011;18701;45.588;5.288;2023-02-16T03:13:16;20.05;;;11.13;;
32200;SDS011;18701;45.588;5.288;2023-02-16T03:15:48;21.50;;;11.13;;
32200;SDS011;18701;45.588;5.288;2023-02-16T03:18:19;26.83;;;12.25;;
32200;SDS011;18701;45.588;5.288;2023-02-16T03:21:06;21.83;;;11.63;;
32200;SDS011;18701;45.588;5.288;2023-02-16T03:26:36;19.27;;;11.18;;
32200;SDS011;18701;45.588;5.288;2023-02-16T03:31:49;20.58;;;10.68;;
32200;SDS011;18701;45.588;5.288;2023-02-16T03:34:18;21.38;;;12.05;;
32200;SDS011;18701;45.588;5.288;2023-02-16T03:36:47;22.33;;;11.70;;
32200;SDS011;18701;45.588;5.288;2023-02-16T03:39:15;19.00;;;10.90;;
32200;SDS011;18701;45.588;5.288;2023-02-16T03:41:42;20.98;;;10.90;;
32200;SDS011;18701;45.588;5.288;2023-02-16T03:44:16;18.50;;;10.88;;
32200;SDS011;18701;45.588;5.288;2023-02-16T03:46:43;20.58;;;12.43;;
32200;SDS011;18701;45.588;5.288;2023-02-16T03:49:10;23.33;;;11.85;;
32200;SDS011;18701;45.588;5.288;2023-02-16T03:51:36;26.67;;;12.65;;
32200;SDS011;18701;45.588;5.288;2023-02-16T03:54:02;22.70;;;12.90;;
32200;SDS011;18701;45.588;5.288;2023-02-16T03:56:28;21.67;;;12.93;;
32200;SDS011;18701;45.588;5.288;2023-02-16T03:58:53;20.65;;;12.82;;
32200;SDS011;18701;45.588;5.288;2023-02-16T04:01:19;20.65;;;12.00;;
32200;SDS011;18701;45.588;5.288;2023-02-16T04:03:44;25.45;;;12.30;;
32200;SDS011;18701;45.588;5.288;2023-02-16T04:06:10;19.92;;;11.95;;
32200;SDS011;18701;45.588;5.288;2023-02-16T04:08:36;22.38;;;12.05;;
32200;SDS011;18701;45.588;5.288;2023-02-16T04:11:02;19.90;;;11.93;;
32200;SDS011;18701;45.588;5.288;2023-02-16T04:13:47;23.83;;;12.70;;
32200;SDS011;18701;45.588;5.288;2023-02-16T04:16:13;20.92;;;12.07;;
32200;SDS011;18701;45.588;5.288;2023-02-16T04:18:39;20.30;;;12.05;;
32200;SDS011;18701;45.588;5.288;2023-02-16T04:21:04;19.92;;;12.35;;
32200;SDS011;18701;45.588;5.288;2023-02-16T04:23:30;22.20;;;12.13;;
32200;SDS011;18701;45.588;5.288;2023-02-16T04:25:55;20.15;;;12.20;;
32200;SDS011;18701;45.588;5.288;2023-02-16T04:28:21;19.88;;;12.00;;
32200;SDS011;18701;45.588;5.288;2023-02-16T04:30:47;20.55;;;11.90;;
32200;SDS011;18701;45.588;5.288;2023-02-16T04:33:12;25.50;;;11.77;;
32200;SDS011;18701;45.588;5.288;2023-02-16T04:35:38;24.58;;;13.02;;
32200;SDS011;18701;45.588;5.288;2023-02-16T04:38:03;18.80;;;11.63;;
32200;SDS011;18701;45.588;5.288;2023-02-16T04:40:29;23.52;;;11.85;;
32200;SDS011;18701;45.588;5.288;2023-02-16T04:42:55;20.25;;;11.85;;
32200;SDS011;18701;45.588;5.288;2023-02-16T04:45:21;22.35;;;11.85;;
32200;SDS011;18701;45.588;5.288;2023-02-16T04:47:46;19.95;;;11.73;;
32200;SDS011;18701;45.588;5.288;2023-02-16T04:50:12;19.70;;;10.52;;
32200;SDS011;18701;45.588;5.288;2023-02-16T04:52:37;20.92;;;11.68;;
32200;SDS011;18701;45.588;5.288;2023-02-16T04:55:04;21.13;;;11.93;;
32200;SDS011;18701;45.588;5.288;2023-02-16T04:57:31;21.77;;;12.10;;
32200;SDS011;18701;45.588;5.288;2023-02-16T04:59:57;22.63;;;11.50;;
32200;SDS011;18701;45.588;5.288;2023-02-16T05:02:22;22.05;;;11.45;;
32200;SDS011;18701;45.588;5.288;2023-02-16T05:04:48;19.63;;;11.60;;
32200;SDS011;18701;45.588;5.288;2023-02-16T05:07:14;19.35;;;11.82;;
32200;SDS011;18701;45.588;5.288;2023-02-16T05:09:39;21.25;;;12.15;;
32200;SDS011;18701;45.588;5.288;2023-02-16T05:12:05;21.17;;;11.88;;
32200;SDS011;18701;45.588;5.288;2023-02-16T05:14:49;23.02;;;13.32;;
32200;SDS011;18701;45.588;5.288;2023-02-16T05:19:48;21.63;;;12.35;;
32200;SDS011;18701;45.588;5.288;2023-02-16T05:22:16;28.88;;;13.02;;
32200;SDS011;18701;45.588;5.288;2023-02-16T05:24:43;21.27;;;11.73;;
32200;SDS011;18701;45.588;5.288;2023-02-16T05:27:13;20.27;;;12.75;;
32200;SDS011;18701;45.588;5.288;2023-02-16T05:29:41;19.40;;;11.25;;
32200;SDS011;18701;45.588;5.288;2023-02-16T05:32:06;24.83;;;12.07;;
32200;SDS011;18701;45.588;5.288;2023-02-16T05:34:33;25.08;;;12.70;;
32200;SDS011;18701;45.588;5.288;2023-02-16T05:36:58;19.15;;;12.52;;
32200;SDS011;18701;45.588;5.288;2023-02-16T05:39:24;21.73;;;12.77;;
32200;SDS011;18701;45.588;5.288;2023-02-16T05:41:50;20.60;;;12.68;;
32200;SDS011;18701;45.588;5.288;2023-02-16T05:44:16;23.63;;;13.57;;
32200;SDS011;18701;45.588;5.288;2023-02-16T05:46:43;26.95;;;14.48;;
32200;SDS011;18701;45.588;5.288;2023-02-16T05:49:10;23.80;;;13.40;;
32200;SDS011;18701;45.588;5.288;2023-02-16T05:51:36;21.52;;;13.48;;
32200;SDS011;18701;45.588;5.288;2023-02-16T05:54:02;26.58;;;13.30;;
32200;SDS011;18701;45.588;5.288;2023-02-16T05:56:28;21.25;;;13.25;;
32200;SDS011;18701;45.588;5.288;2023-02-16T05:58:55;23.73;;;13.38;;
32200;SDS011;18701;45.588;5.288;2023-02-16T06:01:21;24.58;;;12.60;;
32200;SDS011;18701;45.588;5.288;2023-02-16T06:03:47;26.35;;;14.75;;
32200;SDS011;18701;45.588;5.288;2023-02-16T06:06:13;26.65;;;13.30;;
32200;SDS011;18701;45.588;5.288;2023-02-16T06:08:38;22.48;;;13.32;;
32200;SDS011;18701;45.588;5.288;2023-02-16T06:11:05;26.13;;;13.18;;
32200;SDS011;18701;45.588;5.288;2023-02-16T06:13:51;22.38;;;13.25;;
32200;SDS011;18701;45.588;5.288;2023-02-16T06:16:19;25.00;;;13.75;;
32200;SDS011;18701;45.588;5.288;2023-02-16T06:18:44;22.13;;;13.48;;
32200;SDS011;18701;45.588;5.288;2023-02-16T06:21:10;23.98;;;13.52;;
32200;SDS011;18701;45.588;5.288;2023-02-16T06:23:35;21.95;;;14.15;;
32200;SDS011;18701;45.588;5.288;2023-02-16T06:26:01;23.40;;;14.32;;
32200;SDS011;18701;45.588;5.288;2023-02-16T06:28:27;32.90;;;14.75;;
32200;SDS011;18701;45.588;5.288;2023-02-16T06:30:52;26.20;;;15.65;;
32200;SDS011;18701;45.588;5.288;2023-02-16T06:33:18;27.60;;;14.55;;
32200;SDS011;18701;45.588;5.288;2023-02-16T06:35:43;27.63;;;15.25;;
32200;SDS011;18701;45.588;5.288;2023-02-16T06:38:09;26.98;;;14.88;;
32200;SDS011;18701;45.588;5.288;2023-02-16T06:40:34;35.63;;;16.50;;
32200;SDS011;18701;45.588;5.288;2023-02-16T06:43:00;29.25;;;15.25;;
32200;SDS011;18701;45.588;5.288;2023-02-16T06:45:26;27.98;;;14.35;;
32200;SDS011;18701;45.588;5.288;2023-02-16T06:47:51;34.90;;;15.43;;
32200;SDS011;18701;45.588;5.288;2023-02-16T06:50:17;28.80;;;14.18;;
32200;SDS011;18701;45.588;5.288;2023-02-16T06:52:43;29.40;;;15.00;;
32200;SDS011;18701;45.588;5.288;2023-02-16T06:55:08;24.70;;;14.23;;
32200;SDS011;18701;45.588;5.288;2023-02-16T06:57:34;33.88;;;14.52;;
32200;SDS011;18701;45.588;5.288;2023-02-16T06:59:59;31.70;;;13.95;;
32200;SDS011;18701;45.588;5.288;2023-02-16T07:02:25;26.65;;;13.63;;
32200;SDS011;18701;45.588;5.288;2023-02-16T07:04:51;30.20;;;15.27;;
32200;SDS011;18701;45.588;5.288;2023-02-16T07:07:18;32.03;;;14.27;;
32200;SDS011;18701;45.588;5.288;2023-02-16T07:09:43;35.05;;;14.60;;
32200;SDS011;18701;45.588;5.288;2023-02-16T07:12:09;30.05;;;15.63;;
32200;SDS011;18701;45.588;5.288;2023-02-16T07:14:35;32.95;;;15.55;;
32200;SDS011;18701;45.588;5.288;2023-02-16T07:17:00;33.38;;;16.13;;
32200;SDS011;18701;45.588;5.288;2023-02-16T07:19:28;34.15;;;16.27;;
32200;SDS011;18701;45.588;5.288;2023-02-16T07:22:01;32.15;;;16.20;;
32200;SDS011;18701;45.588;5.288;2023-02-16T07:24:27;25.63;;;14.98;;
32200;SDS011;18701;45.588;5.288;2023-02-16T07:26:53;30.55;;;15.30;;
32200;SDS011;18701;45.588;5.288;2023-02-16T07:29:19;27.27;;;15.40;;
32200;SDS011;18701;45.588;5.288;2023-02-16T07:31:45;26.80;;;14.60;;
32200;SDS011;18701;45.588;5.288;2023-02-16T07:34:11;25.67;;;15.55;;
32200;SDS011;18701;45.588;5.288;2023-02-16T07:36:36;31.13;;;16.15;;
32200;SDS011;18701;45.588;5.288;2023-02-16T07:39:02;29.23;;;15.88;;
32200;SDS011;18701;45.588;5.288;2023-02-16T07:41:28;34.80;;;16.13;;
32200;SDS011;18701;45.588;5.288;2023-02-16T07:43:54;31.13;;;17.40;;
32200;SDS011;18701;45.588;5.288;2023-02-16T07:46:19;40.95;;;16.73;;
32200;SDS011;18701;45.588;5.288;2023-02-16T07:48:46;33.05;;;18.02;;
32200;SDS011;18701;45.588;5.288;2023-02-16T07:51:12;31.55;;;17.08;;
32200;SDS011;18701;45.588;5.288;2023-02-16T07:53:48;32.85;;;16.50;;
32200;SDS011;18701;45.588;5.288;2023-02-16T07:56:18;43.38;;;17.17;;
32200;SDS011;18701;45.588;5.288;2023-02-16T07:58:52;29.90;;;16.48;;
32200;SDS011;18701;45.588;5.288;2023-02-16T08:01:18;31.58;;;17.75;;
32200;SDS011;18701;45.588;5.288;2023-02-16T08:03:45;32.30;;;16.45;;
32200;SDS011;18701;45.588;5.288;2023-02-16T08:06:10;27.33;;;16.35;;
32200;SDS011;18701;45.588;5.288;2023-02-16T08:08:36;35.35;;;16.90;;
32200;SDS011;18701;45.588;5.288;2023-02-16T08:13:34;31.65;;;16.95;;
32200;SDS011;18701;45.588;5.288;2023-02-16T08:16:00;35.70;;;17.45;;
32200;SDS011;18701;45.588;5.288;2023-02-16T08:18:25;38.35;;;16.95;;
32200;SDS011;18701;45.588;5.288;2023-02-16T08:20:51;37.42;;;18.38;;
32200;SDS011;18701;45.588;5.288;2023-02-16T08:23:17;37.95;;;19.17;;
32200;SDS011;18701;45.588;5.288;2023-02-16T08:25:42;35.15;;;18.98;;
32200;SDS011;18701;45.588;5.288;2023-02-16T08:28:08;31.98;;;17.10;;
32200;SDS011;18701;45.588;5.288;2023-02-16T08:30:34;44.40;;;17.92;;
32200;SDS011;18701;45.588;5.288;2023-02-16T08:33:00;38.28;;;17.70;;
32200;SDS011;18701;45.588;5.288;2023-02-16T08:35:28;36.00;;;18.45;;
32200;SDS011;18701;45.588;5.288;2023-02-16T08:37:56;35.63;;;18.63;;
32200;SDS011;18701;45.588;5.288;2023-02-16T08:40:23;27.60;;;17.02;;
32200;SDS011;18701;45.588;5.288;2023-02-16T08:42:50;36.75;;;17.58;;
32200;SDS011;18701;45.588;5.288;2023-02-16T08:45:16;33.60;;;18.35;;
32200;SDS011;18701;45.588;5.288;2023-02-16T08:47:42;36.05;;;17.58;;
32200;SDS011;18701;45.588;5.288;2023-02-16T08:50:08;28.02;;;15.63;;
32200;SDS011;18701;45.588;5.288;2023-02-16T08:52:35;31.58;;;16.88;;
32200;SDS011;18701;45.588;5.288;2023-02-16T08:55:01;29.60;;;17.88;;
32200;SDS011;18701;45.588;5.288;2023-02-16T08:57:27;51.55;;;19.58;;
32200;SDS011;18701;45.588;5.288;2023-02-16T08:59:52;44.08;;;20.02;;
32200;SDS011;18701;45.588;5.288;2023-02-16T09:02:38;45.58;;;21.80;;
32200;SDS011;18701;45.588;5.288;2023-02-16T09:05:04;47.85;;;21.35;;
32200;SDS011;18701;45.588;5.288;2023-02-16T09:07:30;45.22;;;21.70;;
32200;SDS011;18701;45.588;5.288;2023-02-16T09:09:59;46.10;;;21.77;;
32200;SDS011;18701;45.588;5.288;2023-02-16T09:12:25;57.38;;;31.30;;
32200;SDS011;18701;45.588;5.288;2023-02-16T09:14:52;70.60;;;42.15;;
32200;SDS011;18701;45.588;5.288;2023-02-16T09:17:18;48.58;;;24.92;;
32200;SDS011;18701;45.588;5.288;2023-02-16T09:19:44;47.17;;;22.45;;
32200;SDS011;18701;45.588;5.288;2023-02-16T09:22:09;42.50;;;22.52;;
32200;SDS011;18701;45.588;5.288;2023-02-16T09:24:35;61.05;;;22.20;;
32200;SDS011;18701;45.588;5.288;2023-02-16T09:27:00;42.83;;;21.70;;
32200;SDS011;18701;45.588;5.288;2023-02-16T09:29:26;35.17;;;19.75;;
32200;SDS011;18701;45.588;5.288;2023-02-16T09:31:53;42.95;;;21.35;;
32200;SDS011;18701;45.588;5.288;2023-02-16T09:34:19;36.65;;;20.80;;
32200;SDS011;18701;45.588;5.288;2023-02-16T09:36:47;36.97;;;20.02;;
32200;SDS011;18701;45.588;5.288;2023-02-16T09:39:13;38.25;;;20.85;;
32200;SDS011;18701;45.588;5.288;2023-02-16T09:46:44;51.30;;;26.25;;
32200;SDS011;18701;45.588;5.288;2023-02-16T09:49:19;49.38;;;23.92;;
32200;SDS011;18701;45.588;5.288;2023-02-16T09:51:47;50.90;;;23.65;;
32200;SDS011;18701;45.588;5.288;2023-02-16T09:59:55;41.08;;;20.08;;
32200;SDS011;18701;45.588;5.288;2023-02-16T10:02:37;37.97;;;20.58;;
32200;SDS011;18701;45.588;5.288;2023-02-16T10:07:48;41.15;;;20.23;;
32200;SDS011;18701;45.588;5.288;2023-02-16T10:13:14;43.85;;;20.52;;
32200;SDS011;18701;45.588;5.288;2023-02-16T10:15:42;47.40;;;19.80;;
32200;SDS011;18701;45.588;5.288;2023-02-16T10:20:50;37.90;;;19.35;;
32200;SDS011;18701;45.588;5.288;2023-02-16T10:26:17;38.60;;;19.80;;
32200;SDS011;18701;45.588;5.288;2023-02-16T10:28:51;44.53;;;18.97;;
32200;SDS011;18701;45.588;5.288;2023-02-16T10:31:21;37.05;;;18.25;;
32200;SDS011;18701;45.588;5.288;2023-02-16T10:42:38;33.63;;;16.00;;
32200;SDS011;18701;45.588;5.288;2023-02-16T10:45:28;32.30;;;17.08;;
32200;SDS011;18701;45.588;5.288;2023-02-16T10:48:01;30.67;;;16.02;;
32200;SDS011;18701;45.588;5.288;2023-02-16T10:50:31;33.17;;;16.75;;
32200;SDS011;18701;45.588;5.288;2023-02-16T10:53:07;29.60;;;15.85;;
32200;SDS011;18701;45.588;5.288;2023-02-16T10:55:37;32.03;;;15.65;;
32200;SDS011;18701;45.588;5.288;2023-02-16T10:58:03;32.38;;;16.45;;
32200;SDS011;18701;45.588;5.288;2023-02-16T11:03:16;33.88;;;15.82;;
32200;SDS011;18701;45.588;5.288;2023-02-16T11:05:47;24.88;;;14.55;;
32200;SDS011;18701;45.588;5.288;2023-02-16T11:08:13;26.00;;;14.48;;
32200;SDS011;18701;45.588;5.288;2023-02-16T11:10:40;23.45;;;15.35;;
32200;SDS011;18701;45.588;5.288;2023-02-16T11:15:54;26.90;;;13.38;;
32200;SDS011;18701;45.588;5.288;2023-02-16T11:20:59;22.40;;;13.45;;
32200;SDS011;18701;45.588;5.288;2023-02-16T11:23:26;22.52;;;14.23;;
32200;SDS011;18701;45.588;5.288;2023-02-16T11:28:35;23.67;;;12.18;;
32200;SDS011;18701;45.588;5.288;2023-02-16T11:33:53;26.00;;;11.57;;
32200;SDS011;18701;45.588;5.288;2023-02-16T11:36:30;21.20;;;11.65;;
32200;SDS011;18701;45.588;5.288;2023-02-16T11:39:48;22.90;;;11.93;;
32200;SDS011;18701;45.588;5.288;2023-02-16T11:46:58;15.85;;;10.40;;
32200;SDS011;18701;45.588;5.288;2023-02-16T11:49:37;15.60;;;11.25;;
32200;SDS011;18701;45.588;5.288;2023-02-16T11:52:18;14.10;;;10.00;;
32200;SDS011;18701;45.588;5.288;2023-02-16T11:54:50;17.90;;;10.20;;
32200;SDS011;18701;45.588;5.288;2023-02-16T11:57:25;11.35;;;8.95;;
32200;SDS011;18701;45.588;5.288;2023-02-16T12:00:00;16.17;;;10.57;;
32200;SDS011;18701;45.588;5.288;2023-02-16T12:05:20;15.57;;;9.02;;
32200;SDS011;18701;45.588;5.288;2023-02-16T12:13:49;11.32;;;7.95;;
32200;SDS011;18701;45.588;5.288;2023-02-16T12:19:43;11.15;;;8.45;;
32200;SDS011;18701;45.588;5.288;2023-02-16T12:43:37;19.20;;;9.43;;
32200;SDS011;18701;45.588;5.288;2023-02-16T12:48:50;10.35;;;8.90;;
32200;SDS011;18701;45.588;5.288;2023-02-16T12:51:37;15.90;;;10.27;;
32200;SDS011;18701;45.588;5.288;2023-02-16T12:54:11;11.35;;;9.15;;
32200;SDS011;18701;45.588;5.288;2023-02-16T12:56:53;13.98;;;10.02;;
32200;SDS011;18701;45.588;5.288;2023-02-16T12:59:34;15.35;;;9.57;;
32200;SDS011;18701;45.588;5.288;2023-02-16T13:02:11;12.13;;;9.55;;
32200;SDS011;18701;45.588;5.288;2023-02-16T13:05:09;15.60;;;9.93;;
32200;SDS011;18701;45.588;5.288;2023-02-16T13:07:42;12.10;;;9.60;;
32200;SDS011;18701;45.588;5.288;2023-02-16T13:13:04;13.38;;;9.60;;
32200;SDS011;18701;45.588;5.288;2023-02-16T13:15:36;13.07;;;10.05;;
32200;SDS011;18701;45.588;5.288;2023-02-16T13:20:40;14.20;;;10.00;;
32200;SDS011;18701;45.588;5.288;2023-02-16T13:29:01;13.77;;;8.98;;
32200;SDS011;18701;45.588;5.288;2023-02-16T13:39:41;14.55;;;8.57;;
32200;SDS011;18701;45.588;5.288;2023-02-16T13:45:11;15.13;;;8.88;;
32200;SDS011;18701;45.588;5.288;2023-02-16T13:47:41;15.95;;;8.43;;
32200;SDS011;18701;45.588;5.288;2023-02-16T13:50:13;10.75;;;9.52;;
32200;SDS011;18701;45.588;5.288;2023-02-16T13:52:51;8.75;;;7.72;;
32200;SDS011;18701;45.588;5.288;2023-02-16T13:57:56;8.13;;;7.30;;
32200;SDS011;18701;45.588;5.288;2023-02-16T14:03:10;11.48;;;8.48;;
32200;SDS011;18701;45.588;5.288;2023-02-16T14:05:41;13.40;;;8.77;;
32200;SDS011;18701;45.588;5.288;2023-02-16T14:13:17;14.18;;;8.55;;
32200;SDS011;18701;45.588;5.288;2023-02-16T14:15:51;12.65;;;8.20;;
32200;SDS011;18701;45.588;5.288;2023-02-16T14:18:29;16.75;;;8.05;;
32200;SDS011;18701;45.588;5.288;2023-02-16T14:21:03;11.93;;;7.78;;
32200;SDS011;18701;45.588;5.288;2023-02-16T14:23:40;12.70;;;7.82;;
32200;SDS011;18701;45.588;5.288;2023-02-16T14:26:06;9.90;;;6.80;;
32200;SDS011;18701;45.588;5.288;2023-02-16T14:31:10;9.32;;;6.90;;
32200;SDS011;18701;45.588;5.288;2023-02-16T14:33:59;7.95;;;6.60;;
32200;SDS011;18701;45.588;5.288;2023-02-16T14:36:31;6.90;;;6.20;;
32200;SDS011;18701;45.588;5.288;2023-02-16T14:38:57;6.78;;;5.40;;
32200;SDS011;18701;45.588;5.288;2023-02-16T14:41:26;6.03;;;4.88;;
32200;SDS011;18701;45.588;5.288;2023-02-16T14:59:55;9.50;;;6.25;;
32200;SDS011;18701;45.588;5.288;2023-02-16T15:02:37;9.48;;;7.18;;
32200;SDS011;18701;45.588;5.288;2023-02-16T15:05:17;11.85;;;7.53;;
32200;SDS011;18701;45.588;5.288;2023-02-16T15:07:50;15.70;;;7.95;;
32200;SDS011;18701;45.588;5.288;2023-02-16T15:10:26;10.00;;;6.32;;
32200;SDS011;18701;45.588;5.288;2023-02-16T15:12:53;8.95;;;6.22;;
32200;SDS011;18701;45.588;5.288;2023-02-16T15:18:14;9.50;;;5.35;;
32200;SDS011;18701;45.588;5.288;2023-02-16T15:20:44;8.32;;;5.30;;
32200;SDS011;18701;45.588;5.288;2023-02-16T15:23:25;8.80;;;6.13;;
32200;SDS011;18701;45.588;5.288;2023-02-16T15:25:56;9.70;;;5.20;;
32200;SDS011;18701;45.588;5.288;2023-02-16T15:28:28;10.80;;;5.30;;
32200;SDS011;18701;45.588;5.288;2023-02-16T15:31:02;5.85;;;4.32;;
32200;SDS011;18701;45.588;5.288;2023-02-16T15:36:00;11.30;;;5.30;;
32200;SDS011;18701;45.588;5.288;2023-02-16T15:38:35;14.27;;;5.07;;
32200;SDS011;18701;45.588;5.288;2023-02-16T15:41:07;8.68;;;4.75;;
32200;SDS011;18701;45.588;5.288;2023-02-16T15:43:42;10.80;;;4.80;;
32200;SDS011;18701;45.588;5.288;2023-02-16T15:46:23;6.97;;;4.78;;
32200;SDS011;18701;45.588;5.288;2023-02-16T15:48:57;6.85;;;4.10;;
32200;SDS011;18701;45.588;5.288;2023-02-16T15:51:27;5.72;;;4.30;;
32200;SDS011;18701;45.588;5.288;2023-02-16T15:54:02;11.30;;;4.05;;
32200;SDS011;18701;45.588;5.288;2023-02-16T15:56:37;9.95;;;4.88;;
32200;SDS011;18701;45.588;5.288;2023-02-16T16:02:34;12.60;;;5.15;;
32200;SDS011;18701;45.588;5.288;2023-02-16T16:05:02;7.85;;;4.00;;
32200;SDS011;18701;45.588;5.288;2023-02-16T16:07:36;8.57;;;4.45;;
32200;SDS011;18701;45.588;5.288;2023-02-16T16:10:17;7.38;;;4.30;;
32200;SDS011;18701;45.588;5.288;2023-02-16T16:13:00;11.45;;;3.72;;
32200;SDS011;18701;45.588;5.288;2023-02-16T16:15:28;10.00;;;4.60;;
32200;SDS011;18701;45.588;5.288;2023-02-16T16:17:56;7.72;;;3.33;;
32200;SDS011;18701;45.588;5.288;2023-02-16T16:22:55;9.68;;;3.95;;
32200;SDS011;18701;45.588;5.288;2023-02-16T16:28:10;10.52;;;4.15;;
32200;SDS011;18701;45.588;5.288;2023-02-16T16:30:38;8.65;;;3.38;;
32200;SDS011;18701;45.588;5.288;2023-02-16T16:33:10;7.03;;;3.90;;
32200;SDS011;18701;45.588;5.288;2023-02-16T16:35:45;7.15;;;3.90;;
32200;SDS011;18701;45.588;5.288;2023-02-16T16:38:27;6.70;;;3.03;;
32200;SDS011;18701;45.588;5.288;2023-02-16T16:40:57;6.43;;;3.03;;
32200;SDS011;18701;45.588;5.288;2023-02-16T16:43:33;7.05;;;3.70;;
32200;SDS011;18701;45.588;5.288;2023-02-16T16:48:36;8.00;;;3.88;;
32200;SDS011;18701;45.588;5.288;2023-02-16T16:53:55;11.90;;;4.90;;
32200;SDS011;18701;45.588;5.288;2023-02-16T16:56:24;15.85;;;4.07;;
32200;SDS011;18701;45.588;5.288;2023-02-16T16:58:51;11.98;;;4.70;;
32200;SDS011;18701;45.588;5.288;2023-02-16T17:01:18;17.42;;;4.68;;
32200;SDS011;18701;45.588;5.288;2023-02-16T17:03:45;13.80;;;4.55;;
32200;SDS011;18701;45.588;5.288;2023-02-16T17:06:11;9.88;;;5.18;;
32200;SDS011;18701;45.588;5.288;2023-02-16T17:08:38;11.50;;;5.80;;
32200;SDS011;18701;45.588;5.288;2023-02-16T17:11:05;9.93;;;4.53;;
32200;SDS011;18701;45.588;5.288;2023-02-16T17:13:33;9.02;;;4.13;;
32200;SDS011;18701;45.588;5.288;2023-02-16T17:16:01;10.98;;;5.00;;
32200;SDS011;18701;45.588;5.288;2023-02-16T17:18:30;12.00;;;4.63;;
32200;SDS011;18701;45.588;5.288;2023-02-16T17:20:56;11.80;;;4.82;;
32200;SDS011;18701;45.588;5.288;2023-02-16T17:23:21;8.10;;;4.53;;
32200;SDS011;18701;45.588;5.288;2023-02-16T17:25:48;17.75;;;5.30;;
32200;SDS011;18701;45.588;5.288;2023-02-16T17:28:14;13.07;;;5.57;;
32200;SDS011;18701;45.588;5.288;2023-02-16T17:30:42;15.57;;;5.20;;
32200;SDS011;18701;45.588;5.288;2023-02-16T17:33:08;12.20;;;5.18;;
32200;SDS011;18701;45.588;5.288;2023-02-16T17:35:34;13.57;;;5.35;;
32200;SDS011;18701;45.588;5.288;2023-02-16T17:38:06;17.38;;;5.68;;
32200;SDS011;18701;45.588;5.288;2023-02-16T17:40:32;14.13;;;6.05;;
32200;SDS011;18701;45.588;5.288;2023-02-16T17:42:58;19.67;;;6.40;;
32200;SDS011;18701;45.588;5.288;2023-02-16T17:45:24;14.57;;;6.47;;
32200;SDS011;18701;45.588;5.288;2023-02-16T17:47:50;20.77;;;6.90;;
32200;SDS011;18701;45.588;5.288;2023-02-16T17:50:19;25.23;;;8.13;;
32200;SDS011;18701;45.588;5.288;2023-02-16T17:52:45;24.17;;;7.15;;
32200;SDS011;18701;45.588;5.288;2023-02-16T17:55:11;25.63;;;7.57;;
32200;SDS011;18701;45.588;5.288;2023-02-16T17:57:37;19.48;;;8.60;;
32200;SDS011;18701;45.588;5.288;2023-02-16T18:00:04;21.55;;;8.73;;